Time;durP1;ratioP1;P1;durP2;ratioP2;P2;SDS_P1;SDS_P2;PMS_P1;PMS_P2;Temp;Humidity;BMP_temperature;BMP_pressure;BME280_temperature;BME280_humidity;BME280_pressure;Samples;Min_cycle;Max_cycle;Signal;HPM_P1;HPM_P2
2022/09/01 00:00:12;;;;;;;9.57;8.57;;;14.30;99.90;;;;;;6378941;22;20414;-94
2022/09/01 00:02:38;;;;;;;9.47;8.10;;;14.30;99.90;;;;;;6378735;22;20396;-95
2022/09/01 00:05:06;;;;;;;11.37;8.53;;;14.20;99.90;;;;;;6378330;22;20401;-94
2022/09/01 00:07:34;;;;;;;10.67;9.00;;;14.20;99.90;;;;;;6378472;22;20409;-96
2022/09/01 00:10:04;;;;;;;9.70;7.70;;;14.20;99.90;;;;;;6378816;22;20395;-95
2022/09/01 00:12:32;;;;;;;9.63;8.20;;;14.20;99.90;;;;;;6378643;22;20389;-95
2022/09/01 00:14:59;;;;;;;8.97;7.97;;;14.20;99.90;;;;;;6378440;22;20560;-95
2022/09/01 00:17:27;;;;;;;8.93;8.03;;;14.10;99.90;;;;;;6378507;22;20480;-96
2022/09/01 00:19:54;;;;;;;8.50;7.47;;;14.10;99.90;;;;;;6378639;22;20452;-94
2022/09/01 00:22:21;;;;;;;9.60;7.40;;;14.10;99.90;;;;;;6378278;22;20465;-93
2022/09/01 00:24:48;;;;;;;10.03;8.40;;;14.10;99.90;;;;;;6378227;22;20411;-94
2022/09/01 00:27:15;;;;;;;9.97;8.20;;;14.10;99.90;;;;;;6378321;22;20456;-94
2022/09/01 00:29:43;;;;;;;9.57;8.63;;;14.10;99.90;;;;;;6378542;22;20390;-95
2022/09/01 00:32:10;;;;;;;9.00;7.80;;;14.10;99.90;;;;;;6378341;22;20401;-95
2022/09/01 00:34:37;;;;;;;8.67;7.77;;;14.00;99.90;;;;;;6378247;22;20386;-94
2022/09/01 00:37:04;;;;;;;9.73;8.53;;;14.00;99.90;;;;;;6377779;22;20425;-95
2022/09/01 00:39:31;;;;;;;9.23;7.27;;;14.00;99.90;;;;;;6378462;22;20392;-93
2022/09/01 00:41:58;;;;;;;8.20;7.43;;;14.00;99.90;;;;;;6378397;22;20406;-96
2022/09/01 00:44:26;;;;;;;8.10;7.17;;;14.00;99.90;;;;;;6378166;22;20412;-96
2022/09/01 00:46:55;;;;;;;9.73;7.80;;;14.00;99.90;;;;;;6367622;22;20444;-95
2022/09/01 00:49:28;;;;;;;9.43;7.70;;;14.00;99.90;;;;;;6378334;22;20402;-94
2022/09/01 00:51:59;;;;;;;10.30;8.60;;;14.00;99.90;;;;;;6378287;22;20472;-93
2022/09/01 00:54:32;;;;;;;9.30;7.83;;;13.90;99.90;;;;;;6377830;22;20480;-95
2022/09/01 00:57:00;;;;;;;10.23;7.83;;;13.90;99.90;;;;;;6378176;22;20480;-96
2022/09/01 00:59:28;;;;;;;10.60;8.60;;;13.90;99.90;;;;;;6367724;22;20400;-95
2022/09/01 01:01:57;;;;;;;9.40;7.87;;;13.90;99.90;;;;;;6378108;22;20478;-95
2022/09/01 01:04:24;;;;;;;8.27;7.07;;;13.90;99.90;;;;;;6377905;22;20449;-96
2022/09/01 01:07:00;;;;;;;8.80;7.77;;;13.90;99.90;;;;;;6378072;22;20425;-94
2022/09/01 01:09:30;;;;;;;9.10;8.20;;;13.90;99.90;;;;;;6378117;22;20426;-94
2022/09/01 01:11:59;;;;;;;9.67;8.60;;;13.90;99.90;;;;;;6378071;22;20400;-95
2022/09/01 01:14:30;;;;;;;10.33;8.90;;;13.90;99.90;;;;;;6377725;22;20473;-94
2022/09/01 01:17:00;;;;;;;9.03;8.17;;;13.90;99.90;;;;;;6377934;22;20416;-96
2022/09/01 01:25:17;;;;;;;8.90;7.33;;;13.90;99.90;;;;;;6378060;22;20399;-94
2022/09/01 01:27:44;;;;;;;9.03;7.90;;;13.90;99.90;;;;;;6377747;22;20429;-95
2022/09/01 01:30:12;;;;;;;8.60;7.70;;;13.80;99.90;;;;;;6377921;22;20465;-95
2022/09/01 01:32:42;;;;;;;10.17;8.37;;;13.80;99.90;;;;;;6377788;22;20468;-95
2022/09/01 01:35:13;;;;;;;10.07;9.07;;;13.80;99.90;;;;;;6377675;22;20389;-94
2022/09/01 01:37:42;;;;;;;9.43;8.47;;;13.80;99.90;;;;;;6377709;22;20438;-94
2022/09/01 01:40:14;;;;;;;8.63;7.70;;;13.80;99.90;;;;;;6377748;22;20398;-94
2022/09/01 01:42:44;;;;;;;9.90;8.00;;;13.80;99.90;;;;;;6377623;22;20393;-95
2022/09/01 01:45:15;;;;;;;8.83;7.80;;;13.80;99.90;;;;;;6377585;22;20386;-96
2022/09/01 01:47:44;;;;;;;9.07;7.87;;;13.80;99.90;;;;;;6377398;22;20516;-94
2022/09/01 01:50:11;;;;;;;9.00;7.47;;;13.80;99.90;;;;;;6377710;22;20381;-95
2022/09/01 01:52:38;;;;;;;9.43;8.03;;;13.70;99.90;;;;;;6366840;22;20412;-95
2022/09/01 01:55:09;;;;;;;9.50;8.50;;;13.70;99.90;;;;;;6377385;22;20400;-95
2022/09/01 01:57:38;;;;;;;13.43;7.20;;;13.70;99.90;;;;;;6377583;22;20413;-94
2022/09/01 02:00:08;;;;;;;7.83;7.03;;;13.70;99.90;;;;;;6377615;22;20404;-95
2022/09/01 02:02:36;;;;;;;10.13;8.47;;;13.70;99.90;;;;;;6377589;22;20390;-95
2022/09/01 02:05:05;;;;;;;9.20;8.00;;;13.70;99.90;;;;;;6377371;22;20393;-95
2022/09/01 02:07:32;;;;;;;9.37;8.10;;;13.70;99.90;;;;;;6377237;22;20429;-95
2022/09/01 02:10:00;;;;;;;8.93;8.03;;;13.70;99.90;;;;;;6377499;22;20386;-96
2022/09/01 02:12:31;;;;;;;10.43;8.57;;;13.70;99.90;;;;;;6377527;22;20393;-94
2022/09/01 02:14:59;;;;;;;9.83;8.83;;;13.70;99.90;;;;;;6377315;22;20394;-95
2022/09/01 02:17:28;;;;;;;9.97;8.87;;;13.70;99.90;;;;;;6377399;22;20409;-95
2022/09/01 02:19:57;;;;;;;10.33;9.27;;;13.70;99.90;;;;;;6377482;22;20461;-95
2022/09/01 02:22:23;;;;;;;11.00;9.90;;;13.60;99.90;;;;;;6377133;22;20396;-96
2022/09/01 02:24:51;;;;;;;9.23;8.27;;;13.60;99.90;;;;;;6377171;22;20397;-95
2022/09/01 02:27:20;;;;;;;11.70;9.47;;;13.60;99.90;;;;;;6377013;22;20429;-95
2022/09/01 02:29:50;;;;;;;13.37;10.13;;;13.60;99.90;;;;;;6377269;22;20404;-95
2022/09/01 02:32:20;;;;;;;9.67;8.67;;;13.70;99.90;;;;;;6377294;22;20397;-95
2022/09/01 02:34:52;;;;;;;12.97;9.37;;;13.70;99.90;;;;;;6377168;22;20443;-95
2022/09/01 02:37:20;;;;;;;9.67;8.43;;;13.70;99.90;;;;;;6377047;22;20413;-95
2022/09/01 02:39:47;;;;;;;10.63;8.80;;;13.70;99.90;;;;;;6377284;22;20396;-95
2022/09/01 02:42:14;;;;;;;11.33;9.07;;;13.60;99.90;;;;;;6377158;22;20421;-94
2022/09/01 02:44:42;;;;;;;9.20;7.73;;;13.60;99.90;;;;;;6376866;22;20393;-95
2022/09/01 02:47:09;;;;;;;9.70;8.17;;;13.60;99.90;;;;;;6377060;22;20458;-95
2022/09/01 02:49:37;;;;;;;10.03;9.00;;;13.60;99.90;;;;;;6366763;22;20436;-95
2022/09/01 02:52:06;;;;;;;8.80;7.90;;;13.60;99.90;;;;;;6377139;22;20412;-94
2022/09/01 02:54:33;;;;;;;10.13;8.10;;;13.60;99.90;;;;;;6376850;22;20463;-94
2022/09/01 02:57:00;;;;;;;8.10;7.30;;;13.60;99.90;;;;;;6376973;22;20486;-96
2022/09/01 02:59:29;;;;;;;9.33;7.73;;;13.50;99.90;;;;;;6376673;22;20477;-96
2022/09/01 03:01:56;;;;;;;8.87;7.50;;;13.50;99.90;;;;;;6377078;22;20412;-94
2022/09/01 03:04:25;;;;;;;9.53;8.60;;;13.50;99.90;;;;;;6366590;22;20414;-95
2022/09/01 03:06:53;;;;;;;8.53;7.60;;;13.50;99.90;;;;;;6376840;22;20448;-95
2022/09/01 03:09:22;;;;;;;9.60;8.60;;;13.50;99.90;;;;;;6376970;22;20385;-94
2022/09/01 03:11:51;;;;;;;10.20;8.33;;;13.50;99.90;;;;;;6377090;22;20683;-94
2022/09/01 03:14:18;;;;;;;9.10;8.20;;;13.50;99.90;;;;;;6376569;22;20479;-95
2022/09/01 03:16:45;;;;;;;9.07;7.27;;;13.50;99.90;;;;;;6376900;22;20408;-95
2022/09/01 03:19:13;;;;;;;12.37;8.40;;;13.50;99.90;;;;;;6376958;22;20450;-95
2022/09/01 03:21:42;;;;;;;9.30;8.30;;;13.40;99.90;;;;;;6376763;22;20408;-94
2022/09/01 03:24:11;;;;;;;11.80;9.27;;;13.40;99.90;;;;;;6376710;22;20395;-96
2022/09/01 03:26:39;;;;;;;9.73;7.90;;;13.40;99.90;;;;;;6376681;22;20450;-95
2022/09/01 03:29:06;;;;;;;8.73;7.83;;;13.40;99.90;;;;;;6376983;22;20397;-95
2022/09/01 03:31:33;;;;;;;9.73;8.37;;;13.40;99.90;;;;;;6376795;22;20512;-95
2022/09/01 03:34:02;;;;;;;10.43;9.40;;;13.30;99.90;;;;;;6376534;22;20425;-95
2022/09/01 03:36:29;;;;;;;11.70;8.80;;;13.30;99.90;;;;;;6375613;22;20499;-95
2022/09/01 03:38:56;;;;;;;9.30;8.30;;;13.30;99.90;;;;;;6375995;22;20468;-96
2022/09/01 03:41:28;;;;;;;11.00;9.90;;;13.30;99.90;;;;;;6376228;22;20476;-95
2022/09/01 03:43:57;;;;;;;11.40;9.97;;;13.30;99.90;;;;;;6375597;22;20400;-95
2022/09/01 03:46:29;;;;;;;10.83;9.43;;;13.20;99.90;;;;;;6376768;22;20419;-95
2022/09/01 03:51:31;;;;;;;11.70;8.97;;;13.20;99.90;;;;;;6366923;22;20401;-94
2022/09/01 03:56:33;;;;;;;10.40;8.20;;;13.10;99.90;;;;;;6364275;22;20431;-94
2022/09/01 03:59:01;;;;;;;10.67;9.17;;;13.10;99.90;;;;;;6375971;22;20424;-95
2022/09/01 04:01:31;;;;;;;10.13;8.90;;;13.10;99.90;;;;;;6376245;22;20468;-95
2022/09/01 04:04:00;;;;;;;8.73;7.73;;;13.10;99.90;;;;;;6375662;22;20419;-95
2022/09/01 04:06:29;;;;;;;9.57;8.57;;;13.10;99.90;;;;;;6375848;22;20399;-96
2022/09/01 04:09:01;;;;;;;10.50;9.10;;;13.10;99.90;;;;;;6367303;22;20743;-94
2022/09/01 04:11:30;;;;;;;9.57;8.00;;;13.10;99.90;;;;;;6372812;22;20442;-95
2022/09/01 04:14:11;;;;;;;11.23;9.73;;;13.10;99.90;;;;;;6376337;22;20414;-93
2022/09/01 04:19:26;;;;;;;12.17;7.33;;;13.10;99.90;;;;;;6378119;22;20397;-95
2022/09/01 04:21:54;;;;;;;9.60;8.60;;;13.10;99.90;;;;;;6377303;22;20453;-94
2022/09/01 04:24:23;;;;;;;9.30;8.40;;;13.10;99.90;;;;;;6377478;22;20472;-95
2022/09/01 04:26:51;;;;;;;9.43;8.40;;;13.00;99.90;;;;;;6377466;22;20456;-96
2022/09/01 04:29:25;;;;;;;10.53;8.50;;;13.00;99.90;;;;;;6366329;22;20433;-95
2022/09/01 04:31:55;;;;;;;11.43;9.23;;;13.00;99.90;;;;;;6377846;22;20503;-95
2022/09/01 04:34:23;;;;;;;10.50;9.40;;;13.00;99.90;;;;;;6377855;22;20425;-94
2022/09/01 04:36:52;;;;;;;10.57;9.47;;;12.90;99.90;;;;;;6378273;22;20481;-95
2022/09/01 04:39:19;;;;;;;10.93;8.60;;;13.00;99.90;;;;;;6378439;22;20399;-94
2022/09/01 04:41:50;;;;;;;8.27;7.23;;;12.90;99.90;;;;;;6377416;22;20492;-95
2022/09/01 04:44:19;;;;;;;9.70;8.10;;;12.90;99.90;;;;;;6378261;22;20401;-96
2022/09/01 04:46:49;;;;;;;9.40;8.33;;;12.90;99.90;;;;;;6378015;22;20447;-96
2022/09/01 04:49:21;;;;;;;15.53;9.80;;;12.90;99.90;;;;;;6378425;22;20446;-96
2022/09/01 04:51:50;;;;;;;11.00;9.73;;;13.00;99.90;;;;;;6378141;22;20397;-96
2022/09/01 04:54:18;;;;;;;8.80;7.50;;;13.00;99.90;;;;;;6378034;22;20404;-94
2022/09/01 04:56:48;;;;;;;12.50;10.10;;;13.00;99.90;;;;;;6377978;22;20433;-94
2022/09/01 04:59:19;;;;;;;11.00;9.17;;;13.00;99.90;;;;;;6378219;22;20400;-94
2022/09/01 05:01:49;;;;;;;9.40;8.47;;;13.10;99.90;;;;;;6378263;22;20464;-96
2022/09/01 05:04:21;;;;;;;9.70;8.70;;;13.10;99.90;;;;;;6377717;22;20420;-95
2022/09/01 05:06:50;;;;;;;11.60;10.40;;;13.10;99.90;;;;;;6377760;22;20405;-95
2022/09/01 05:09:18;;;;;;;12.20;8.73;;;13.10;99.90;;;;;;6377989;22;20480;-96
2022/09/01 05:11:45;;;;;;;12.47;9.90;;;13.20;99.90;;;;;;6363717;22;20444;-94
2022/09/01 05:14:12;;;;;;;12.27;9.17;;;13.20;99.90;;;;;;6377287;22;20397;-94
2022/09/01 05:16:41;;;;;;;9.67;8.63;;;13.20;99.90;;;;;;6378009;22;20408;-93
2022/09/01 05:19:13;;;;;;;13.00;10.07;;;13.30;99.90;;;;;;6377867;22;20414;-92
2022/09/01 05:21:40;;;;;;;11.87;9.97;;;13.30;99.90;;;;;;6377444;22;20475;-93
2022/09/01 05:24:09;;;;;;;11.07;9.53;;;13.40;99.90;;;;;;6377565;22;20405;-92
2022/09/01 05:26:47;;;;;;;11.50;10.30;;;13.50;99.90;;;;;;6378001;22;20496;-94
2022/09/01 05:29:16;;;;;;;12.67;10.37;;;13.50;99.90;;;;;;6377715;22;20409;-95
2022/09/01 05:32:07;;;;;;;12.33;10.43;;;13.60;99.90;;;;;;6377743;22;20409;-94
2022/09/01 05:34:38;;;;;;;14.53;10.33;;;13.60;99.90;;;;;;6377565;22;20468;-94
2022/09/01 05:37:10;;;;;;;11.43;9.53;;;13.70;99.90;;;;;;6377288;22;20483;-95
2022/09/01 05:39:38;;;;;;;13.70;10.57;;;13.70;99.90;;;;;;6377730;22;20398;-93
2022/09/01 05:42:06;;;;;;;11.63;10.43;;;13.80;99.90;;;;;;6377623;22;20425;-95
2022/09/01 05:57:06;;;;;;;11.53;9.20;;;13.90;99.90;;;;;;6361379;22;20452;-94
2022/09/01 05:59:34;;;;;;;12.30;10.17;;;13.90;99.90;;;;;;6378575;22;20389;-96
2022/09/01 06:02:01;;;;;;;11.80;9.97;;;13.90;99.90;;;;;;6378917;22;20394;-95
2022/09/01 06:04:29;;;;;;;12.50;10.07;;;14.00;99.90;;;;;;6378984;22;20389;-95
2022/09/01 06:06:56;;;;;;;12.50;10.97;;;14.10;99.90;;;;;;6378964;22;20381;-95
2022/09/01 06:09:23;;;;;;;12.77;9.77;;;14.10;99.90;;;;;;6378688;22;20407;-94
2022/09/01 06:14:53;;;;;;;14.53;11.40;;;14.20;99.90;;;;;;6339035;22;20440;-95
2022/09/01 06:22:31;;;;;;;12.97;10.40;;;14.40;99.90;;;;;;6270661;22;20433;-94
2022/09/01 06:32:54;;;;;;;9.07;8.17;;;14.60;99.90;;;;;;6356265;22;20432;-95
2022/09/01 07:02:55;;;;;;;11.90;9.77;;;15.70;99.90;;;;;;6268615;22;20447;-95
2022/09/01 07:05:26;;;;;;;11.50;9.20;;;15.80;99.90;;;;;;6299655;22;20521;-95
2022/09/01 07:07:55;;;;;;;13.83;10.13;;;15.80;99.90;;;;;;6345640;22;20437;-95
2022/09/01 07:10:28;;;;;;;12.90;9.27;;;15.80;99.90;;;;;;6345780;22;20421;-93
2022/09/01 07:13:02;;;;;;;12.03;9.50;;;15.90;99.90;;;;;;6345111;22;20394;-95
2022/09/01 09:15:09;;;;;;;6.43;5.80;;;17.90;99.90;;;;;;6250743;22;20457;-92
2022/09/01 09:17:41;;;;;;;7.37;6.60;;;18.00;99.90;;;;;;6290033;22;20439;-91
2022/09/01 09:20:09;;;;;;;6.37;4.97;;;18.20;99.90;;;;;;6289693;22;20410;-91
2022/09/01 09:22:49;;;;;;;7.17;6.23;;;18.30;99.90;;;;;;6289261;22;20423;-91
2022/09/01 10:00:01;;;;;;;4.93;4.43;;;18.70;99.90;;;;;;6266700;22;20476;-94
2022/09/01 10:02:31;;;;;;;4.80;4.40;;;18.70;99.90;;;;;;6292045;22;20411;-94
2022/09/01 10:05:00;;;;;;;4.37;3.97;;;18.70;99.90;;;;;;6293848;22;20407;-93
2022/09/01 10:07:33;;;;;;;4.53;4.10;;;18.70;99.90;;;;;;6293285;22;20425;-94
2022/09/01 10:10:04;;;;;;;4.90;4.43;;;18.70;99.90;;;;;;6298971;22;20417;-93
2022/09/01 10:12:31;;;;;;;4.40;4.00;;;18.80;99.90;;;;;;6313658;22;20407;-92
2022/09/01 10:15:03;;;;;;;4.13;3.83;;;18.90;99.90;;;;;;6293180;22;20534;-93
2022/09/01 10:17:33;;;;;;;4.30;3.83;;;19.00;99.90;;;;;;6286691;22;20413;-93
2022/09/01 10:20:06;;;;;;;4.00;3.60;;;19.00;99.90;;;;;;6286855;22;20423;-92
2022/09/01 10:22:34;;;;;;;4.50;4.10;;;19.00;99.90;;;;;;6290923;22;20441;-92
2022/09/01 10:25:02;;;;;;;4.37;3.97;;;19.00;99.90;;;;;;6294104;22;20420;-93
2022/09/01 10:27:32;;;;;;;3.87;3.47;;;19.00;99.90;;;;;;6297665;22;20450;-95
2022/09/01 10:30:07;;;;;;;3.80;3.50;;;19.00;99.90;;;;;;6311534;22;20748;-94
2022/09/01 10:32:39;;;;;;;3.47;3.13;;;19.00;99.90;;;;;;6308923;22;20449;-93
2022/09/01 10:35:10;;;;;;;3.93;3.27;;;18.90;99.90;;;;;;6303083;22;20411;-93
2022/09/01 10:37:37;;;;;;;4.23;3.70;;;19.00;99.90;;;;;;6304014;22;20399;-96
2022/09/01 10:40:17;;;;;;;3.57;3.27;;;19.00;99.90;;;;;;6313503;22;20427;-92
2022/09/01 10:42:46;;;;;;;3.77;3.47;;;19.10;99.90;;;;;;6313218;22;20696;-95
2022/09/01 10:45:32;;;;;;;3.57;3.27;;;19.20;99.90;;;;;;6312039;22;20422;-94
2022/09/01 10:48:23;;;;;;;3.60;3.30;;;19.30;99.90;;;;;;6313196;22;20442;-94
2022/09/01 10:50:51;;;;;;;3.40;3.00;;;19.30;99.90;;;;;;6309536;22;20537;-94
2022/09/01 10:53:40;;;;;;;4.13;3.70;;;19.30;99.90;;;;;;6299137;22;20490;-95
2022/09/01 10:56:13;;;;;;;3.60;3.30;;;19.30;99.90;;;;;;6304855;22;20415;-94
2022/09/01 10:58:54;;;;;;;4.13;3.37;;;19.40;99.90;;;;;;6305015;22;20494;-93
2022/09/01 11:01:54;;;;;;;3.03;2.83;;;19.40;99.90;;;;;;6307654;22;20434;-94
2022/09/01 11:04:43;;;;;;;3.97;3.20;;;19.60;99.90;;;;;;6292525;22;20520;-93
2022/09/01 11:07:30;;;;;;;3.27;3.00;;;19.80;99.90;;;;;;6287900;22;20501;-94
2022/09/01 11:10:16;;;;;;;2.70;2.50;;;20.00;99.90;;;;;;6288010;22;20505;-93
2022/09/01 11:13:08;;;;;;;3.83;3.33;;;20.10;99.90;;;;;;6290297;22;20425;-93
2022/09/01 11:15:39;;;;;;;3.60;3.30;;;20.40;99.90;;;;;;6293717;22;20415;-94
2022/09/01 11:18:12;;;;;;;2.77;2.57;;;20.80;99.90;;;;;;6289425;22;20415;-92
2022/09/01 11:20:43;;;;;;;3.80;3.30;;;21.10;99.90;;;;;;6288428;22;20546;-92
2022/09/01 11:23:12;;;;;;;3.43;3.13;;;21.40;99.90;;;;;;6289479;22;20419;-93
2022/09/01 11:25:43;;;;;;;3.07;2.87;;;21.60;99.90;;;;;;6302186;22;20422;-94
2022/09/01 11:28:39;;;;;;;4.00;3.70;;;21.70;99.90;;;;;;6306373;22;20442;-94
2022/09/01 11:31:28;;;;;;;3.60;3.10;;;21.90;99.90;;;;;;6309546;22;20422;-94
2022/09/01 11:34:15;;;;;;;2.80;2.60;;;22.10;99.90;;;;;;6312664;22;20419;-94
2022/09/01 11:36:57;;;;;;;3.93;3.53;;;22.30;99.90;;;;;;6311234;22;20410;-94
2022/09/01 11:39:34;;;;;;;2.90;2.70;;;22.10;99.90;;;;;;6296524;22;20408;-93
2022/09/01 11:42:07;;;;;;;2.53;2.33;;;21.70;99.90;;;;;;6292215;22;20439;-93
2022/09/01 11:44:40;;;;;;;3.20;2.90;;;21.40;99.90;;;;;;6294162;22;20436;-94
2022/09/01 11:47:11;;;;;;;3.10;2.87;;;21.10;99.90;;;;;;6295554;22;20421;-93
2022/09/01 11:52:51;;;;;;;3.73;3.33;;;21.30;99.90;;;;;;6300396;22;20441;-94
2022/09/01 11:55:28;;;;;;;3.13;2.83;;;21.40;99.90;;;;;;6292908;22;20414;-92
2022/09/01 11:57:55;;;;;;;7.30;2.87;;;21.70;99.90;;;;;;6289802;22;20414;-93
2022/09/01 12:00:29;;;;;;;2.80;2.60;;;22.00;99.90;;;;;;6288870;22;20529;-92
2022/09/01 12:02:56;;;;;;;2.50;2.30;;;22.20;99.90;;;;;;6287914;22;20408;-92
2022/09/01 12:05:28;;;;;;;2.77;2.57;;;22.50;99.90;;;;;;6295634;22;20427;-94
2022/09/01 12:07:57;;;;;;;2.80;2.60;;;22.80;99.90;;;;;;6297507;22;20497;-93
2022/09/01 12:10:33;;;;;;;3.30;3.00;;;23.00;99.90;;;;;;6295693;22;20442;-93
2022/09/01 12:13:03;;;;;;;3.57;3.00;;;22.80;99.90;;;;;;6295376;22;20452;-94
2022/09/01 12:15:30;;;;;;;7.50;3.30;;;22.50;99.90;;;;;;6293266;22;20484;-93
2022/09/01 12:18:13;;;;;;;3.50;3.20;;;22.30;99.90;;;;;;6297004;22;21008;-94
2022/09/01 12:20:40;;;;;;;3.37;3.10;;;22.00;99.90;;;;;;6295041;22;20473;-93
2022/09/01 12:23:19;;;;;;;3.13;2.93;;;21.80;99.90;;;;;;6293241;22;20481;-93
2022/09/01 12:25:47;;;;;;;3.20;3.00;;;21.80;99.90;;;;;;6297699;22;20502;-91
2022/09/01 12:28:14;;;;;;;3.50;3.20;;;21.90;99.90;;;;;;6288349;22;20449;-94
2022/09/01 12:30:43;;;;;;;3.23;2.93;;;22.20;99.90;;;;;;6289989;22;20456;-94
2022/09/01 12:36:01;;;;;;;3.20;3.00;;;22.80;99.90;;;;;;6288375;22;20420;-93
2022/09/01 12:38:30;;;;;;;2.77;2.57;;;23.10;99.90;;;;;;6292056;22;20511;-94
2022/09/01 12:40:58;;;;;;;3.30;3.00;;;23.30;99.90;;;;;;6291475;22;20962;-94
2022/09/01 12:43:34;;;;;;;3.27;2.97;;;23.50;99.90;;;;;;6292166;22;20914;-93
2022/09/01 12:46:03;;;;;;;3.67;3.37;;;23.70;99.90;;;;;;6293171;22;20423;-94
2022/09/01 12:48:32;;;;;;;3.20;3.00;;;23.90;99.90;;;;;;6294284;22;20439;-93
2022/09/01 12:51:02;;;;;;;3.20;2.90;;;23.90;99.90;;;;;;6297217;22;20430;-94
2022/09/01 12:53:33;;;;;;;3.03;2.83;;;23.80;99.90;;;;;;6305201;22;20934;-93
2022/09/01 12:56:27;;;;;;;3.40;3.10;;;23.70;99.90;;;;;;6300713;22;20432;-94
2022/09/01 12:59:11;;;;;;;2.57;2.37;;;23.50;99.90;;;;;;6308184;22;20401;-96
2022/09/01 13:01:44;;;;;;;3.03;2.83;;;23.40;99.90;;;;;;6304832;22;20441;-93
2022/09/01 13:04:25;;;;;;;3.20;2.90;;;23.40;99.90;;;;;;6304712;22;20550;-94
2022/09/01 13:06:57;;;;;;;3.70;2.80;;;23.50;99.90;;;;;;6304360;22;20425;-93
2022/09/01 13:09:28;;;;;;;3.40;3.10;;;23.70;99.90;;;;;;6303492;22;20454;-93
2022/09/01 13:12:09;;;;;;;3.20;2.97;;;23.80;99.90;;;;;;6301134;22;20446;-94
2022/09/01 13:14:38;;;;;;;3.30;3.00;;;23.80;99.90;;;;;;6312328;22;20417;-94
2022/09/01 13:17:06;;;;;;;3.17;2.87;;;23.70;99.90;;;;;;6310724;22;20420;-93
2022/09/01 13:19:33;;;;;;;3.40;3.10;;;23.40;99.90;;;;;;6310314;22;20404;-94
2022/09/01 13:22:00;;;;;;;3.60;3.00;;;23.10;99.90;;;;;;6312241;22;20433;-93
2022/09/01 13:25:11;;;;;;;3.30;3.00;;;22.80;99.90;;;;;;6310998;22;20425;-94
2022/09/01 13:27:43;;;;;;;2.43;2.23;;;22.50;99.90;;;;;;6310316;22;20443;-93
2022/09/01 13:30:12;;;;;;;2.90;2.60;;;22.30;99.90;;;;;;6309864;22;20444;-93
2022/09/01 13:32:40;;;;;;;2.80;2.60;;;22.10;99.90;;;;;;6306348;22;20500;-93
2022/09/01 13:35:07;;;;;;;3.03;2.60;;;22.20;99.90;;;;;;6293614;22;20424;-92
2022/09/01 13:37:37;;;;;;;3.17;2.93;;;22.50;99.90;;;;;;6289947;22;20906;-92
2022/09/01 13:40:06;;;;;;;3.70;2.43;;;22.90;99.90;;;;;;6289635;22;20423;-94
2022/09/01 13:42:33;;;;;;;3.00;2.80;;;23.30;99.90;;;;;;6289419;22;20521;-92
2022/09/01 13:45:01;;;;;;;2.70;2.50;;;23.50;99.90;;;;;;6291394;22;20424;-91
2022/09/01 13:47:28;;;;;;;3.30;2.93;;;23.60;99.90;;;;;;6287108;22;20448;-93
2022/09/01 13:49:55;;;;;;;2.83;2.60;;;23.60;99.90;;;;;;6287316;22;20448;-93
2022/09/01 15:53:17;;;;;;;;;;;;;;;;;;;;;
2022/09/01 16:11:25;;;;;;;3.20;3.00;;;22.40;99.90;;;;;;6283378;22;20472;-93
2022/09/01 16:17:02;;;;;;;3.17;2.87;;;22.10;99.90;;;;;;6335148;22;20399;-95
2022/09/01 16:19:36;;;;;;;3.00;2.80;;;22.10;99.90;;;;;;6346426;22;20391;-94
2022/09/01 16:27:23;;;;;;;2.93;2.73;;;22.20;99.90;;;;;;6297381;22;20425;-95
2022/09/01 18:51:51;;;;;;;4.17;3.77;;;18.30;99.90;;;;;;6331667;22;20410;-94
2022/09/01 19:16:01;;;;;;;5.07;4.60;;;17.40;99.90;;;;;;6332366;22;20438;-96
2022/09/01 19:18:49;;;;;;;5.07;4.30;;;17.30;99.90;;;;;;6335912;22;20440;-95
2022/09/01 20:12:43;;;;;;;4.30;3.90;;;16.10;99.90;;;;;;6356929;22;20439;-94
2022/09/01 20:15:31;;;;;;;4.40;4.00;;;16.10;99.90;;;;;;6369561;22;20412;-96
2022/09/01 20:18:08;;;;;;;3.83;3.53;;;16.10;99.90;;;;;;6372325;22;20458;-94
2022/09/01 20:21:01;;;;;;;4.57;4.03;;;16.00;99.90;;;;;;6375867;22;20389;-95
2022/09/01 20:23:49;;;;;;;4.03;3.33;;;16.00;99.90;;;;;;6375200;22;20453;-95
2022/09/01 20:32:02;;;;;;;3.70;3.33;;;15.80;99.90;;;;;;6333067;22;20413;-93
2022/09/01 20:35:09;;;;;;;;;;;;;;;;;;;;;
2022/09/01 20:37:41;;;;;;;3.90;3.50;;;15.80;99.90;;;;;;6343204;22;20413;-93
2022/09/01 20:40:36;;;;;;;3.47;3.17;;;15.70;99.90;;;;;;6343319;22;20446;-93
2022/09/01 20:43:23;;;;;;;4.03;3.73;;;15.70;99.90;;;;;;6343291;22;20405;-93
2022/09/01 20:46:07;;;;;;;4.00;3.70;;;15.60;99.90;;;;;;6343230;22;20408;-91
2022/09/01 20:49:01;;;;;;;4.70;4.00;;;15.60;99.90;;;;;;6343351;22;20517;-93
2022/09/01 20:51:55;;;;;;;4.57;4.17;;;15.60;99.90;;;;;;6343658;22;20402;-94
2022/09/01 20:54:48;;;;;;;;;;;;;;;;;;;;;
2022/09/01 20:57:38;;;;;;;3.87;3.57;;;15.50;99.90;;;;;;6342938;22;20409;-94
2022/09/01 21:00:25;;;;;;;5.20;3.67;;;15.40;99.90;;;;;;6343236;22;20459;-93
2022/09/01 21:03:08;;;;;;;4.43;4.13;;;15.40;99.90;;;;;;6373666;22;20412;-93
2022/09/01 21:05:45;;;;;;;3.90;3.60;;;15.40;99.90;;;;;;6374200;22;20489;-92
2022/09/01 21:08:26;;;;;;;3.73;3.40;;;15.40;99.90;;;;;;6373798;22;20490;-93
2022/09/01 21:10:58;;;;;;;4.07;3.67;;;15.30;99.90;;;;;;6374370;22;20508;-92
2022/09/01 21:13:41;;;;;;;3.50;3.20;;;15.30;99.90;;;;;;6374178;22;20741;-92
2022/09/01 21:16:17;;;;;;;3.93;3.63;;;15.20;99.90;;;;;;6375076;22;20401;-92
2022/09/01 21:18:53;;;;;;;3.60;3.30;;;15.20;99.90;;;;;;6375084;22;20445;-93
2022/09/01 21:21:31;;;;;;;4.40;3.63;;;15.20;99.90;;;;;;6375245;22;20406;-93
2022/09/01 21:23:58;;;;;;;4.37;3.97;;;15.20;99.90;;;;;;6374982;22;20411;-93
2022/09/01 21:26:25;;;;;;;4.00;3.63;;;15.10;99.90;;;;;;6374027;22;20484;-93
2022/09/01 21:28:55;;;;;;;3.97;3.57;;;15.10;99.90;;;;;;6374770;22;20436;-92
2022/09/01 21:31:22;;;;;;;3.97;3.67;;;15.10;99.90;;;;;;6375442;22;20713;-93
2022/09/01 21:33:52;;;;;;;4.17;3.87;;;15.00;99.90;;;;;;6375184;22;20401;-93
2022/09/01 21:36:19;;;;;;;3.77;3.47;;;15.00;99.90;;;;;;6374683;22;20405;-95
2022/09/01 21:38:48;;;;;;;4.23;3.83;;;15.00;99.90;;;;;;6374002;22;20433;-94
2022/09/01 21:41:15;;;;;;;3.90;3.57;;;14.90;99.90;;;;;;6372529;22;20421;-94
2022/09/01 21:43:45;;;;;;;3.47;3.17;;;14.90;99.90;;;;;;6373394;22;20401;-93
2022/09/01 21:46:15;;;;;;;4.50;4.10;;;14.90;99.90;;;;;;6359138;22;20435;-92
2022/09/01 21:48:42;;;;;;;5.70;3.77;;;14.80;99.90;;;;;;6351951;22;20441;-91
2022/09/01 21:51:08;;;;;;;4.00;3.63;;;14.80;99.90;;;;;;6350198;22;20456;-91
2022/09/01 21:53:35;;;;;;;4.40;4.00;;;14.80;99.90;;;;;;6341579;22;20425;-91
2022/09/01 21:56:04;;;;;;;3.93;3.63;;;14.80;99.90;;;;;;6351705;22;20912;-94
2022/09/01 21:58:31;;;;;;;3.67;3.37;;;14.70;99.90;;;;;;6348461;22;20448;-92
2022/09/01 22:00:58;;;;;;;3.70;3.40;;;14.70;99.90;;;;;;6348436;22;20413;-91
2022/09/01 22:03:25;;;;;;;3.70;3.37;;;14.70;99.90;;;;;;6348638;22;20418;-92
2022/09/01 22:05:51;;;;;;;4.13;3.80;;;14.70;99.90;;;;;;6350598;22;20428;-90
2022/09/01 22:08:18;;;;;;;4.40;4.00;;;14.70;99.90;;;;;;6351796;22;20445;-91
2022/09/01 22:10:47;;;;;;;4.60;3.83;;;14.60;99.90;;;;;;6369100;22;20444;-91
2022/09/01 22:13:16;;;;;;;4.40;4.10;;;14.60;99.90;;;;;;6370765;22;20742;-91
2022/09/01 22:15:45;;;;;;;3.63;3.33;;;14.60;99.90;;;;;;6353762;22;20452;-91
2022/09/01 22:18:12;;;;;;;3.83;3.43;;;14.60;99.90;;;;;;6348645;22;20437;-92
2022/09/01 22:20:39;;;;;;;3.40;3.10;;;14.60;99.90;;;;;;6338165;22;20474;-90
2022/09/01 22:23:06;;;;;;;3.93;3.63;;;14.50;99.90;;;;;;6346942;22;20493;-92
2022/09/01 22:25:34;;;;;;;4.03;3.67;;;14.50;99.90;;;;;;6349404;22;20481;-92
2022/09/01 22:28:03;;;;;;;3.90;3.33;;;14.50;99.90;;;;;;6348727;22;20428;-91
2022/09/01 22:30:32;;;;;;;3.87;3.57;;;14.50;99.90;;;;;;6348632;22;20447;-92
2022/09/01 22:32:59;;;;;;;4.13;3.73;;;14.50;99.90;;;;;;6352254;22;20432;-92
2022/09/01 22:35:26;;;;;;;3.67;3.23;;;14.50;99.90;;;;;;6353739;22;20417;-92
2022/09/01 22:37:53;;;;;;;3.27;2.97;;;14.50;99.90;;;;;;6341427;22;20762;-92
2022/09/01 22:40:20;;;;;;;3.70;3.40;;;14.40;99.90;;;;;;6350551;22;20420;-92
2022/09/01 22:42:47;;;;;;;4.23;3.83;;;14.40;99.90;;;;;;6349360;22;20428;-90
2022/09/01 22:45:15;;;;;;;3.37;3.07;;;14.40;99.90;;;;;;6350142;22;20520;-91
2022/09/01 22:47:43;;;;;;;3.80;3.00;;;14.40;99.90;;;;;;6347743;22;20830;-91
2022/09/01 22:50:10;;;;;;;3.47;3.23;;;14.40;99.90;;;;;;6347910;22;20441;-92
2022/09/01 22:52:38;;;;;;;3.47;3.17;;;14.30;99.90;;;;;;6338947;22;20421;-92
2022/09/01 22:55:08;;;;;;;4.27;3.87;;;14.30;99.90;;;;;;6348420;22;20489;-92
2022/09/01 22:57:36;;;;;;;5.00;3.63;;;14.30;99.90;;;;;;6338427;22;20439;-91
2022/09/01 23:00:07;;;;;;;5.30;3.60;;;14.30;99.90;;;;;;6347255;22;20487;-92
2022/09/01 23:02:34;;;;;;;3.70;3.40;;;14.20;99.90;;;;;;6345733;22;20420;-91
2022/09/01 23:05:02;;;;;;;5.17;3.60;;;14.20;99.90;;;;;;6346442;22;20479;-92